METAR stanice u blizini

 

LYNI - Nis, Yugoslavia
Distance from station: JZ 40km
Ažurirano: 17/06/2019 12:00
Few Clouds
Few Clouds
 Pravac vetra SSZ
Vetar: SSZ 28 km/h
Temperatura: 25°C
Tačka rose: 18°C
Vlažnost: 65%
Pritisak: 1016 hPa
Oblaci: Few Clouds
Vidljivost: 10 km
Cloud details: Few Clouds 914 m
2019/06/17 10:00 LYNI 171000Z 33015KT 290V020 9999 FEW030 25/18 Q1016 NOSIG
LYKV - Kraljevo, Yugoslavia
Distance from station: ZSZ 136km
Ažurirano: 17/06/2019 12:00
Pretežno oblačno
Pretežno oblačno
 Pravac vetra S
Vetar: S 7 km/h
Temperatura: 24°C
Tačka rose: 18°C
Vlažnost: 69%
Pritisak: 1017 hPa
Oblaci: Pretežno oblačno
Vidljivost: 10 km
Cloud details: Pretežno oblačno 1006 m
2019/06/17 10:00 LYKV 171000Z 01004KT 260V050 9999 BKN033 24/18 Q1017 NOSIG
LBSF - Sofia (observato, Bulgaria
Distance from station: JI 138km
Ažurirano: 17/06/2019 12:30
Pretežno oblačno
Pretežno oblačno
 Pravac vetra varies
Vetar: varies 9 km/h
Temperatura: 28°C
Heat Index: 28°C
Tačka rose: 14°C
Vlažnost: 42%
Pritisak: 1015 hPa
Oblaci: Pretežno oblačno
Vidljivost: 10 km
Cloud details: Few Clouds 1219 m
Pretežno oblačno 1433 m
2019/06/17 10:30 LBSF 171030Z VRB05KT 9999 FEW040CB BKN047 28/14 Q1015 TEMPO TSRA FEW030CB
 
BKPR - Prishtina, Yugoslavia
Distance from station: JZ 147km
Ažurirano: 17/06/2019 12:30
Delimično oblačno
Delimično oblačno
 Pravac vetra S
Vetar: S 17 km/h
Temperatura: 25°C
Tačka rose: 15°C
Vlažnost: 54%
Pritisak: 1017 hPa
Oblaci: Delimično oblačno
Vidljivost: 10 km
Cloud details: Delimično oblačno 1219 m
2019/06/17 10:30 BKPR 171030Z 35009KT 320V020 9999 SCT040 25/15 Q1017 NOSIG
LRCV - Craiova, Romania
Distance from station: SI 154km
Ažurirano: 17/06/2019 12:00
Few Clouds
Few Clouds
 Pravac vetra JI
Vetar: JI 6 km/h
Temperatura: 30°C
Heat Index: 31°C
Tačka rose: 18°C
Vlažnost: 49%
Pritisak: 1015 hPa
Oblaci: Few Clouds
Vidljivost: 10 km
Cloud details: Few Clouds 1372 m
2019/06/17 10:00 LRCV 171000Z 14003KT 050V220 9999 FEW045 30/18 Q1015
LWSK - Skopje/Petrovac, Macedonia
Distance from station: JJZ 185km
Ažurirano: 17/06/2019 12:00
Few Clouds
Few Clouds
 Pravac vetra varies
Vetar: varies 6 km/h
Temperatura: 28°C
Heat Index: 29°C
Tačka rose: 18°C
Vlažnost: 55%
Pritisak: 1014 hPa
Oblaci: Few Clouds
Vidljivost: 10 km
Cloud details: Few Clouds 1829 m
2019/06/17 10:00 LWSK 171000Z VRB03KT 9999 FEW060 28/18 Q1014 NOSIG
 
LYVR - Vrsac, Yugoslavia
Distance from station: SSZ 189km
Ažurirano: 17/06/2019 12:00
Delimično oblačno
Delimično oblačno
 Pravac vetra Z
Vetar: Z 9 km/h
Temperatura: 25°C
Tačka rose: 19°C
Vlažnost: 69%
Pritisak: 1017 hPa
Oblaci: Delimično oblačno
Vidljivost: 10 km
Cloud details: Few Clouds 701 m
Delimično oblačno 792 m
2019/06/17 10:00 LYVR 171000Z 26005KT 190V310 9999 FEW023TCU SCT026 25/19 Q1017 NOSIG
LYUZ - Uzice-Ponikve, Yugoslavia
Distance from station: Z 207km
Ažurirano: 17/06/2019 12:00
Pretežno oblačno
Pretežno oblačno
 Pravac vetra SZ
Vetar: SZ 11 km/h
Temperatura: 17°C
Tačka rose: 15°C
Vlažnost: 88%
Pritisak: 1021 hPa
Oblaci: Pretežno oblačno
Vidljivost: 8 km
Cloud details: Delimično oblačno 183 m
Pretežno oblačno 518 m
2019/06/17 10:00 LYUZ 171000Z 31006KT 280V360 8000 SCT006 BKN017 17/15 Q1021
LYBE - Belgrade/Surcin, Yugoslavia
Distance from station: SZ 209km
Ažurirano: 17/06/2019 12:00
Delimično oblačno
Delimično oblačno
 Pravac vetra Z
Vetar: Z 13 km/h
Temperatura: 25°C
Tačka rose: 18°C
Vlažnost: 65%
Pritisak: 1017 hPa
Oblaci: Delimično oblačno
Vidljivost: 10 km
Cloud details: Delimično oblačno 823 m
2019/06/17 10:00 LYBE 171000Z 27007KT 230V300 9999 SCT027 25/18 Q1017 NOSIG
 
LYBT - Batajnica, Yugoslavia
Distance from station: SZ 219km
Ažurirano: 17/06/2019 12:00
Delimično oblačno
Delimično oblačno
 Pravac vetra JJZ
Vetar: JJZ 11 km/h
Temperatura: 25°C
Tačka rose: 19°C
Vlažnost: 69%
Pritisak: 1017 hPa
Oblaci: Delimično oblačno
Vidljivost: 10 km
Cloud details: Delimično oblačno 762 m
2019/06/17 10:00 LYBT 171000Z 20006KT 150V250 9999 SCT025 25/19 Q1017 NOSIG
LRTR - Timisoara/Giarma, Romania
Distance from station: SSZ 260km
Ažurirano: 17/06/2019 12:00
Delimično oblačno
Delimično oblačno
 Pravac vetra Z
Vetar: Z 9 km/h
Temperatura: 26°C
Tačka rose: 21°C
Vlažnost: 74%
Pritisak: 1017 hPa
Oblaci: Delimično oblačno
Vidljivost: 10 km
Cloud details: Delimično oblačno 762 m
2019/06/17 10:00 LRTR 171000Z 27005KT 9999 SCT025 26/21 Q1017 NOSIG
LBPD - Plovdiv, Bulgaria
Distance from station: JI 263km
Ažurirano: 17/06/2019 12:30
Vedro
Vedro
 Pravac vetra IJI
Vetar: IJI 9 km/h
Temperatura: 30°C
Tačka rose: 14°C
Vlažnost: 38%
Pritisak: 1014 hPa
Oblaci: Vedro
Vidljivost: 10 km
2019/06/17 10:30 LBPD 171030Z AUTO 11005KT 070V180 9999 NCD 30/14 Q1014 NOSIG
 
LYPG - Podgorica(Titogr, Yugoslavia
Distance from station: ZJZ 278km
Ažurirano: 17/06/2019 12:00
Few Clouds
Few Clouds
 Pravac vetra JJI
Vetar: JJI 7 km/h
Temperatura: 31°C
Heat Index: 32°C
Tačka rose: 17°C
Vlažnost: 43%
Pritisak: 1012 hPa
Oblaci: Few Clouds
Vidljivost: 10 km
Cloud details: Few Clouds 1219 m
2019/06/17 10:00 LYPG 171000Z 15004KT 060V230 9999 FEW040 31/17 Q1012 NOSIG
LBGO - Gorna Orechovist, Bulgaria
Distance from station: I 285km
Ažurirano: 17/06/2019 12:30
Few Clouds
Few Clouds
 Pravac vetra varies
Vetar: varies 7 km/h
Temperatura: 30°C
Heat Index: 31°C
Tačka rose: 18°C
Vlažnost: 49%
Pritisak: 1014 hPa
Oblaci: Few Clouds
Vidljivost: 10 km
Cloud details: Few Clouds 1372 m
2019/06/17 10:30 LBGO 171030Z AUTO VRB04KT 9999 FEW045 30/18 Q1014 NOSIG
LRSB - Sibiu/Turnisor, Romania
Distance from station: SSI 286km
Ažurirano: 17/06/2019 12:00
Few Clouds
Few Clouds
 Pravac vetra SSZ
Vetar: SSZ 9 km/h
Temperatura: 27°C
Heat Index: 28°C
Tačka rose: 18°C
Vlažnost: 58%
Pritisak: 1017 hPa
Oblaci: Few Clouds
Vidljivost: 10 km
Cloud details: Few Clouds 1067 m
Few Clouds 1097 m
2019/06/17 10:00 LRSB 171000Z 33005KT 270V040 9999 FEW035 FEW036TCU 27/18 Q1017 NOSIG
 
LWOH - Ohrid, Macedonia
Distance from station: JJZ 292km
Ažurirano: 17/06/2019 12:30
Few Clouds
Few Clouds
 Pravac vetra JJI
Vetar: JJI 11 km/h
Temperatura: 22°C
Tačka rose: 16°C
Vlažnost: 69%
Pritisak: 1017 hPa
Oblaci: Few Clouds
Vidljivost: 10 km
Cloud details: Few Clouds 1524 m
2019/06/17 10:30 LWOH 171030Z 16006KT 9999 FEW050 22/16 Q1017
LQTZ - Tuzla, Yugoslavia
Distance from station: ZSZ 298km
Ažurirano: 17/06/2019 12:00
Pretežno oblačno
Pretežno oblačno
 Pravac vetra varies
Vetar: varies 6 km/h
Temperatura: 21°C
Tačka rose: 19°C
Vlažnost: 88%
Pritisak: 1018 hPa
Oblaci: Pretežno oblačno
Vidljivost: 10 km
Cloud details: Few Clouds 366 m
Pretežno oblačno 701 m
Pretežno oblačno 1067 m
2019/06/17 10:00 LQTZ 171000Z VRB03KT 9999 FEW012 BKN023 BKN035 21/19 Q1018
LRAR - Arad, Romania
Distance from station: SSZ 301km
Ažurirano: 17/06/2019 12:00
Few Clouds
Few Clouds
 Pravac vetra JZ
Vetar: JZ 7 km/h
Temperatura: 22°C
Tačka rose: 20°C
Vlažnost: 88%
Pritisak: 1017 hPa
Oblaci: Few Clouds
Vidljivost: 10 km
Cloud details: Delimično oblačno 1006 m
Few Clouds 1372 m
2019/06/17 10:00 LRAR 171000Z 23004KT 9999 SCT033 FEW045CB 22/20 Q1017 R09/29//95
 
LYTV - Tivat, Yugoslavia
Distance from station: ZJZ 315km
Ažurirano: 17/06/2019 12:00
Few Clouds
Few Clouds
 Pravac vetra ZSZ
Vetar: ZSZ 7 km/h
Temperatura: 30°C
Heat Index: 32°C
Tačka rose: 20°C
Vlažnost: 55%
Pritisak: 1012 hPa
Oblaci: Few Clouds
Vidljivost: 10 km
Cloud details: Few Clouds 1615 m
2019/06/17 10:00 LYTV 171000Z 29004KT 200V340 9999 FEW053 30/20 Q1012 NOSIG
LATI - Tirana, Albania
Distance from station: JZ 316km
Ažurirano: 17/06/2019 12:20
Few Clouds
Few Clouds
 Pravac vetra varies
Vetar: varies 2 km/h
Temperatura: 32°C
Heat Index: 37°C
Tačka rose: 23°C
Vlažnost: 59%
Pritisak: 1012 hPa
Oblaci: Few Clouds
Vidljivost: 10 km
Cloud details: Few Clouds 1524 m
2019/06/17 10:20 LATI 171020Z VRB01KT 9999 FEW050 32/23 Q1012 NOSIG
LQBK - Banja Luka, Yugoslavia
Distance from station: SZ 426km
Ažurirano: 17/06/2019 12:00
Delimično oblačno
Delimično oblačno
 Pravac vetra varies
Vetar: varies 4 km/h
Temperatura: 23°C
Tačka rose: 17°C
Vlažnost: 69%
Pritisak: 1019 hPa
Oblaci: Delimično oblačno
Vidljivost: 10 km
Cloud details: Delimično oblačno 701 m
2019/06/17 10:00 LQBK 171000Z VRB02KT 9999 SCT023 23/17 Q1019 NOSIG
 
LDOS - Osijek, Croatia
Distance from station: SSZ 360km
Ažurirano: 17/06/2019 12:30
Few Clouds
Few Clouds
 Pravac vetra SZ
Vetar: SZ 13 km/h
Temperatura: 23°C
Tačka rose: 17°C
Vlažnost: 69%
Pritisak: 1017 hPa
Oblaci: Few Clouds
Vidljivost: 10 km
Cloud details: Few Clouds 1006 m
2019/06/17 10:30 LDOS 171030Z 31007KT 9999 FEW033 23/17 Q1017
LDDU - Dubrovnik-Cilipi, Croatia
Distance from station: JZ 352km
Ažurirano: 17/06/2019 12:30
Few Clouds
Few Clouds
 Pravac vetra J
Vetar: J 11 km/h
Temperatura: 28°C
Heat Index: 29°C
Tačka rose: 19°C
Vlažnost: 58%
Pritisak: 1014 hPa
Oblaci: Few Clouds
Vidljivost: 10 km
Cloud details: Few Clouds 1219 m
2019/06/17 10:30 LDDU 171030Z 17006KT 140V210 9999 FEW040 28/19 Q1014 NOSIG
LQMO - Mostar Airport, Bosnia-Herzegovina
Distance from station: Z 359km
Ažurirano: 17/06/2019 12:00
Few Clouds
Few Clouds
 Pravac vetra ZSZ
Vetar: ZSZ 15 km/h
Temperatura: 31°C
Tačka rose: 15°C
Vlažnost: 38%
Pritisak: 1012 hPa
Oblaci: Few Clouds
Vidljivost: 10 km
Cloud details: Few Clouds 1219 m
2019/06/17 10:00 LQMO 171000Z 29008KT 260V320 9999 FEW040 31/15 Q1012
 
LQSA - Sarajevo/Butmir, Yugoslavia
Distance from station: Z 311km
Ažurirano: 17/06/2019 12:00
Delimično oblačno
Delimično oblačno
 Pravac vetra SSZ
Vetar: SSZ 7 km/h
Temperatura: 22°C
Tačka rose: 15°C
Vlažnost: 65%
Pritisak: 1019 hPa
Oblaci: Delimično oblačno
Vidljivost: 10 km
Cloud details: Few Clouds 914 m
Delimično oblačno 1524 m
2019/06/17 10:00 LQSA 171000Z 33004KT 280V030 9999 FEW030 SCT050 22/15 Q1019 NOSIG
LDSP - Split/Kastel Sta, Croatia
Distance from station: Z 468km
Ažurirano: 17/06/2019 12:30
Vedro
Vedro
 Pravac vetra IJI
Vetar: IJI 13 km/h
Temperatura: 32°C
Tačka rose: 14°C
Vlažnost: 33%
Pritisak: 1013 hPa
Pregled: Vedro
Vidljivost: greater than 10 km
2019/06/17 10:30 LDSP 171030Z 11007KT CAVOK 32/14 Q1013 NOSIG
LDZD - Zadar/Zemunik, Croatia
Distance from station: ZSZ 567km
Ažurirano: 17/06/2019 12:30
Vedro
Vedro
 Pravac vetra SI
Vetar: SI 15 km/h
Temperatura: 31°C
Tačka rose: 15°C
Vlažnost: 38%
Pritisak: 1014 hPa
Pregled: Vedro
Vidljivost: greater than 10 km
2019/06/17 10:30 LDZD 171030Z 05008KT 340V130 CAVOK 31/15 Q1014 NOSIG
 
LDZA - Zagreb/Pleso, Croatia
Distance from station: SZ 555km
Ažurirano: 17/06/2019 12:30
Pretežno oblačno
Pretežno oblačno
 Pravac vetra I
Vetar: I 7 km/h
Temperatura: 24°C
Tačka rose: 18°C
Vlažnost: 69%
Pritisak: 1018 hPa
Oblaci: Pretežno oblačno
Vidljivost: 10 km
Cloud details: Pretežno oblačno 945 m
2019/06/17 10:30 LDZA 171030Z 10004KT 030V170 9999 BKN031 24/18 Q1018 NOSIG
LJCE - Cerklje, Slovenia
Distance from station: SZ 680km
Ažurirano: 17/06/2019 12:00
Pretežno oblačno
Pretežno oblačno
 Pravac vetra varies
Vetar: varies 2 km/h
Temperatura: 24°C
Tačka rose: 16°C
Vlažnost: 61%
Pritisak: 1019 hPa
Oblaci: Pretežno oblačno
Vidljivost: 10 km
Cloud details: Few Clouds 823 m
Delimično oblačno 3658 m
Pretežno oblačno 4877 m
2019/06/17 10:00 LJCE 171000Z VRB01KT 9999 FEW027 SCT120 BKN160 24/16 Q1019
LJMB - Maribor, Slovenia
Distance from station: SZ 616km
Ažurirano: 17/06/2019 12:00
Vedro
Vedro
 Pravac vetra S
Vetar: S 13 km/h
Temperatura: 24°C
Tačka rose: 14°C
Vlažnost: 54%
Pritisak: 1019 hPa
Pregled: Vedro
Vidljivost: greater than 10 km
2019/06/17 10:00 LJMB 171000Z 01007KT 340V050 CAVOK 24/14 Q1019
 
LJLJ - Ljubljana/Brnik, Slovenia
Distance from station: SZ 671km
Ažurirano: 17/06/2019 12:00
Pretežno oblačno
Pretežno oblačno
 Pravac vetra JJI
Vetar: JJI 6 km/h
Temperatura: 24°C
Tačka rose: 16°C
Vlažnost: 61%
Pritisak: 1019 hPa
Oblaci: Pretežno oblačno
Vidljivost: 10 km
Cloud details: Few Clouds 1128 m
Pretežno oblačno 7620 m
2019/06/17 10:00 LJLJ 171000Z 15003KT 110V280 9999 FEW037 BKN250 24/16 Q1019 NOSIG
LDRI - Rijeka, Croatia
Distance from station: SZ 650km
Ažurirano: 17/06/2019 12:30
Vedro
Vedro
 Pravac vetra I
Vetar: I 20 km/h, Maks.: 41 km/h
Temperatura: 27°C
Heat Index: 27°C
Tačka rose: 13°C
Vlažnost: 42%
Pritisak: 1016 hPa
Pregled: Vedro
Vidljivost: greater than 10 km
2019/06/17 10:30 LDRI 171030Z 08011G22KT 040V140 CAVOK 27/13 Q1016
LDPL - Pula, Croatia
Distance from station: ZSZ 686km
Ažurirano: 17/06/2019 12:30
Vedro
Vedro
 Pravac vetra I
Vetar: I 31 km/h
Temperatura: 28°C
Heat Index: 28°C
Tačka rose: 15°C
Vlažnost: 45%
Pritisak: 1015 hPa
Pregled: Vedro
Vidljivost: greater than 10 km
2019/06/17 10:30 LDPL 171030Z 08017KT CAVOK 28/15 Q1015 NOSIG
 
LJPZ - Portorož, Slovenia
Distance from station: ZSZ 720km
Ažurirano: 17/06/2019 12:00
Vedro
Vedro
 Pravac vetra S
Vetar: S 6 km/h
Temperatura: 28°C
Heat Index: 28°C
Tačka rose: 16°C
Vlažnost: 48%
Pritisak: 1015 hPa
Pregled: Vedro
Vidljivost: greater than 10 km
2019/06/17 10:00 LJPZ 171000Z 01003KT 330V040 CAVOK 28/16 Q1015